Time;durP1;ratioP1;P1;durP2;ratioP2;P2;SDS_P1;SDS_P2;PMS_P1;PMS_P2;Temp;Humidity;BMP_temperature;BMP_pressure;BME280_temperature;BME280_humidity;BME280_pressure;Samples;Min_cycle;Max_cycle;Signal;HPM_P1;HPM_P2
2023/09/04 00:01:42;;;;;;;8.27;7.55;;;11.50;99.90;;;;;;6136010;23;20063;-76
2023/09/04 00:04:08;;;;;;;8.18;7.38;;;11.50;99.90;;;;;;6160474;23;20063;-76
2023/09/04 00:06:34;;;;;;;8.82;8.00;;;11.50;99.90;;;;;;6160294;23;20047;-76
2023/09/04 00:09:00;;;;;;;8.73;7.82;;;11.50;99.90;;;;;;6160545;23;20489;-76
2023/09/04 00:11:28;;;;;;;7.15;6.55;;;11.40;99.90;;;;;;6160526;23;20092;-76
2023/09/04 00:13:54;;;;;;;9.07;7.28;;;11.40;99.90;;;;;;6160654;23;20012;-76
2023/09/04 00:16:20;;;;;;;11.55;8.00;;;11.40;99.90;;;;;;6160298;23;20091;-76
2023/09/04 00:18:46;;;;;;;7.18;6.57;;;11.30;99.90;;;;;;6160126;23;20009;-75
2023/09/04 00:21:12;;;;;;;8.88;7.40;;;11.30;99.90;;;;;;6159850;23;20481;-76
2023/09/04 00:23:37;;;;;;;8.40;7.22;;;11.30;99.90;;;;;;6160249;23;20013;-76
2023/09/04 00:26:03;;;;;;;7.05;6.20;;;11.30;99.90;;;;;;6160119;23;20009;-76
2023/09/04 00:28:29;;;;;;;10.63;7.97;;;11.20;99.90;;;;;;6160339;23;20008;-76
2023/09/04 00:30:56;;;;;;;12.57;8.70;;;11.20;99.90;;;;;;6160195;23;20101;-76
2023/09/04 00:33:22;;;;;;;8.48;7.60;;;11.20;99.90;;;;;;6160395;23;20096;-76
2023/09/04 00:35:47;;;;;;;8.82;8.02;;;11.10;99.90;;;;;;6159949;23;20052;-76
2023/09/04 00:38:13;;;;;;;10.57;7.30;;;11.10;99.90;;;;;;6135726;23;20020;-76
2023/09/04 00:40:38;;;;;;;13.80;9.13;;;11.10;99.90;;;;;;6160140;23;20019;-76
2023/09/04 00:43:04;;;;;;;13.27;12.02;;;11.10;99.90;;;;;;6135876;23;20464;-76
2023/09/04 00:45:30;;;;;;;16.88;15.30;;;11.00;99.90;;;;;;6135266;23;20005;-76
2023/09/04 00:47:56;;;;;;;16.80;15.00;;;11.00;99.90;;;;;;6160164;23;20021;-76
2023/09/04 00:50:23;;;;;;;14.15;12.02;;;11.00;99.90;;;;;;6185369;23;20016;-76
2023/09/04 00:52:51;;;;;;;10.48;9.50;;;11.00;99.90;;;;;;6160263;23;20008;-75
2023/09/04 00:55:18;;;;;;;13.32;11.77;;;11.00;99.90;;;;;;6134939;23;20009;-76
2023/09/04 00:57:44;;;;;;;11.73;10.63;;;10.90;99.90;;;;;;6160075;23;20450;-76
2023/09/04 01:00:13;;;;;;;11.23;10.18;;;10.90;99.90;;;;;;6159531;23;20016;-76
2023/09/04 01:02:40;;;;;;;9.88;8.88;;;10.90;99.90;;;;;;6158673;23;20073;-76
2023/09/04 01:05:06;;;;;;;9.82;8.20;;;10.90;99.90;;;;;;6133743;23;20478;-75
2023/09/04 01:07:33;;;;;;;11.57;8.20;;;10.90;99.90;;;;;;6158504;23;20016;-76
2023/09/04 01:09:59;;;;;;;9.07;8.18;;;10.80;99.90;;;;;;6133759;23;20009;-76
2023/09/04 01:12:35;;;;;;;9.07;8.00;;;10.80;99.90;;;;;;6158663;23;20020;-76
2023/09/04 01:15:02;;;;;;;28.58;17.65;;;10.80;99.90;;;;;;6158267;23;20019;-76
2023/09/04 01:17:29;;;;;;;10.68;8.63;;;10.80;99.90;;;;;;6158424;23;20021;-76
2023/09/04 01:19:55;;;;;;;14.40;12.88;;;10.70;99.90;;;;;;6158651;23;20021;-76
2023/09/04 01:22:21;;;;;;;13.35;12.07;;;10.70;99.90;;;;;;6182894;23;20017;-76
2023/09/04 01:24:47;;;;;;;14.07;12.80;;;10.70;99.90;;;;;;6182840;23;20453;-76
2023/09/04 01:27:27;;;;;;;14.40;13.00;;;10.70;99.90;;;;;;6158436;23;20009;-75
2023/09/04 01:29:58;;;;;;;19.30;17.42;;;10.70;99.90;;;;;;6134257;23;20322;-75
2023/09/04 01:32:48;;;;;;;16.30;14.52;;;10.60;99.90;;;;;;6158658;23;20012;-76
2023/09/04 01:35:16;;;;;;;17.10;15.35;;;10.60;99.90;;;;;;6157818;23;20353;-76
2023/09/04 01:37:42;;;;;;;16.17;14.48;;;10.60;99.90;;;;;;6157948;23;20441;-76
2023/09/04 01:40:08;;;;;;;16.50;14.90;;;10.60;99.90;;;;;;6158106;23;20059;-76
2023/09/04 01:42:36;;;;;;;15.43;14.02;;;10.60;99.90;;;;;;6158034;23;20091;-75
2023/09/04 01:45:02;;;;;;;16.52;14.93;;;10.60;99.90;;;;;;6158017;23;20014;-76
2023/09/04 01:47:30;;;;;;;15.55;13.32;;;10.60;99.90;;;;;;6133780;23;20016;-76
2023/09/04 01:49:56;;;;;;;21.88;16.27;;;10.50;99.90;;;;;;6158582;23;20341;-75
2023/09/04 01:52:22;;;;;;;14.77;13.32;;;10.50;99.90;;;;;;6158187;23;20005;-75
2023/09/04 01:54:48;;;;;;;19.63;17.60;;;10.50;99.90;;;;;;6157776;23;20096;-76
2023/09/04 01:57:14;;;;;;;23.30;20.95;;;10.50;99.90;;;;;;6158112;23;20013;-75
2023/09/04 01:59:39;;;;;;;19.73;17.88;;;10.50;99.90;;;;;;6133731;23;20350;-76
2023/09/04 02:02:05;;;;;;;17.95;16.40;;;10.50;99.90;;;;;;6182366;23;20028;-76
2023/09/04 02:04:31;;;;;;;17.65;15.15;;;10.50;99.90;;;;;;6158020;23;20020;-76
2023/09/04 02:06:58;;;;;;;21.27;18.73;;;10.40;99.90;;;;;;6133729;23;20009;-76
2023/09/04 02:09:24;;;;;;;18.05;16.25;;;10.40;99.90;;;;;;6158088;23;20009;-76
2023/09/04 02:11:49;;;;;;;14.98;13.48;;;10.40;99.90;;;;;;6158128;23;20088;-76
2023/09/04 02:14:15;;;;;;;14.27;12.85;;;10.40;99.90;;;;;;6157580;23;20021;-76
2023/09/04 02:16:41;;;;;;;16.30;14.57;;;10.40;99.90;;;;;;6158207;23;20017;-76
2023/09/04 02:19:06;;;;;;;16.50;14.90;;;10.40;99.90;;;;;;6158010;23;20013;-76
2023/09/04 02:21:32;;;;;;;14.63;13.30;;;10.30;99.90;;;;;;6133636;23;20095;-76
2023/09/04 02:23:58;;;;;;;15.45;13.85;;;10.30;99.90;;;;;;6157758;23;20013;-76
2023/09/04 02:26:24;;;;;;;17.88;16.25;;;10.30;99.90;;;;;;6157936;23;20096;-76
2023/09/04 02:28:50;;;;;;;16.70;14.98;;;10.30;99.90;;;;;;6157956;23;20044;-75
2023/09/04 02:31:15;;;;;;;14.55;13.13;;;10.30;99.90;;;;;;6157989;23;20093;-76
2023/09/04 02:33:41;;;;;;;46.95;25.92;;;10.30;99.90;;;;;;6158318;23;20102;-76
2023/09/04 02:36:06;;;;;;;23.90;18.45;;;10.20;99.90;;;;;;6156974;23;20352;-75
2023/09/04 02:38:32;;;;;;;19.20;17.35;;;10.20;99.90;;;;;;6157687;23;20095;-75
2023/09/04 02:40:58;;;;;;;21.38;19.23;;;10.20;99.90;;;;;;6157857;23;20071;-76
2023/09/04 02:43:23;;;;;;;16.00;14.32;;;10.20;99.90;;;;;;6157622;23;20017;-76
2023/09/04 02:45:51;;;;;;;15.63;14.18;;;10.20;99.90;;;;;;6157618;23;20015;-75
2023/09/04 02:48:16;;;;;;;17.08;15.52;;;10.20;99.90;;;;;;6157523;23;20056;-76
2023/09/04 02:50:42;;;;;;;18.40;16.42;;;10.20;99.90;;;;;;6157992;23;20009;-76
2023/09/04 02:53:08;;;;;;;21.23;18.92;;;10.10;99.90;;;;;;6157820;23;20710;-76
2023/09/04 02:55:33;;;;;;;17.30;15.60;;;10.10;99.90;;;;;;6157139;23;20013;-76
2023/09/04 02:57:59;;;;;;;25.27;22.58;;;10.20;99.90;;;;;;6157118;23;20049;-76
2023/09/04 03:00:24;;;;;;;26.23;23.40;;;10.10;99.90;;;;;;6157886;23;20353;-76
2023/09/04 03:02:50;;;;;;;19.08;17.55;;;10.10;99.90;;;;;;6132950;23;20350;-76
2023/09/04 03:05:17;;;;;;;19.17;17.48;;;10.20;99.90;;;;;;6157121;23;20009;-75
2023/09/04 03:07:43;;;;;;;18.65;16.80;;;10.10;99.90;;;;;;6157283;23;20520;-76
2023/09/04 03:10:08;;;;;;;29.17;24.38;;;10.00;99.90;;;;;;6157369;23;20120;-75
2023/09/04 03:12:34;;;;;;;21.55;19.63;;;10.10;99.90;;;;;;6182918;23;20013;-76
2023/09/04 03:15:03;;;;;;;19.73;18.02;;;10.00;99.90;;;;;;6156968;23;20013;-76
2023/09/04 03:17:29;;;;;;;19.02;17.27;;;10.00;99.90;;;;;;6157189;23;20016;-76
2023/09/04 03:19:56;;;;;;;16.90;15.13;;;10.00;99.90;;;;;;6157185;23;20047;-76
2023/09/04 03:22:23;;;;;;;21.17;18.85;;;10.00;99.90;;;;;;6157384;23;20076;-76
2023/09/04 03:24:48;;;;;;;16.05;14.48;;;10.00;99.90;;;;;;6156702;23;20017;-76
2023/09/04 03:27:14;;;;;;;17.75;16.05;;;10.00;99.90;;;;;;6156320;23;20020;-76
2023/09/04 03:29:40;;;;;;;15.88;14.32;;;9.90;99.90;;;;;;6181567;23;20009;-76
2023/09/04 03:32:06;;;;;;;16.73;15.20;;;9.90;99.90;;;;;;6157344;23;20005;-76
2023/09/04 03:34:32;;;;;;;15.63;14.23;;;9.90;99.90;;;;;;6157041;23;20394;-76
2023/09/04 03:36:58;;;;;;;19.95;17.80;;;9.90;99.90;;;;;;6156902;23;20013;-76
2023/09/04 03:39:24;;;;;;;14.20;13.00;;;9.90;99.90;;;;;;6157336;23;20092;-76
2023/09/04 03:41:51;;;;;;;16.00;14.60;;;9.80;99.90;;;;;;6157354;23;20013;-76
2023/09/04 03:44:17;;;;;;;20.40;18.40;;;9.80;99.90;;;;;;6155352;23;20044;-76
2023/09/04 03:46:42;;;;;;;17.10;15.38;;;9.80;99.90;;;;;;6156920;23;20064;-76
2023/09/04 03:49:08;;;;;;;20.13;18.02;;;9.80;99.90;;;;;;6156892;23;20381;-76
2023/09/04 03:51:33;;;;;;;27.70;21.45;;;9.80;99.90;;;;;;6157386;23;20084;-76
2023/09/04 03:54:02;;;;;;;28.33;23.17;;;9.80;99.90;;;;;;6157162;23;20017;-76
2023/09/04 03:56:31;;;;;;;17.50;16.00;;;9.70;99.90;;;;;;6157057;23;20017;-76
2023/09/04 03:58:57;;;;;;;20.23;18.33;;;9.70;99.90;;;;;;6156677;23;20073;-76
2023/09/04 04:01:22;;;;;;;20.90;18.73;;;9.70;99.90;;;;;;6156700;23;20009;-76
2023/09/04 04:03:49;;;;;;;20.63;18.58;;;9.70;99.90;;;;;;6157375;23;20041;-76
2023/09/04 04:06:15;;;;;;;18.45;16.65;;;9.70;99.90;;;;;;6156234;23;20072;-76
2023/09/04 04:08:41;;;;;;;25.98;22.67;;;9.60;99.90;;;;;;6157097;23;20442;-76
2023/09/04 04:11:06;;;;;;;18.35;16.65;;;9.60;99.90;;;;;;6157342;23;20046;-76
2023/09/04 04:13:32;;;;;;;20.23;18.30;;;9.60;99.90;;;;;;6156889;23;20592;-76
2023/09/04 04:15:59;;;;;;;23.40;20.90;;;9.60;99.90;;;;;;6156856;23;20009;-76
2023/09/04 04:18:27;;;;;;;19.00;16.88;;;9.60;99.90;;;;;;6157221;23;20017;-76
2023/09/04 04:20:53;;;;;;;17.40;15.70;;;9.60;99.90;;;;;;6132673;23;20446;-76
2023/09/04 04:23:18;;;;;;;18.83;16.83;;;9.60;99.90;;;;;;6156506;23;20027;-76
2023/09/04 04:25:44;;;;;;;18.25;16.45;;;9.60;99.90;;;;;;6156644;23;20009;-76
2023/09/04 04:28:09;;;;;;;16.75;15.10;;;9.50;99.90;;;;;;6156950;23;20017;-76
2023/09/04 04:30:35;;;;;;;12.77;11.68;;;9.50;99.90;;;;;;6157650;23;20028;-76
2023/09/04 04:33:01;;;;;;;14.30;12.95;;;9.50;99.90;;;;;;6157041;23;20013;-76
2023/09/04 04:35:27;;;;;;;17.65;15.82;;;9.50;99.90;;;;;;6156749;23;20315;-76
2023/09/04 04:37:53;;;;;;;13.73;12.52;;;9.50;99.90;;;;;;6158310;23;20136;-77
2023/09/04 04:40:24;;;;;;;14.07;12.43;;;9.50;99.90;;;;;;6159051;23;20017;-76
2023/09/04 04:42:50;;;;;;;15.50;14.10;;;9.50;99.90;;;;;;6134389;23;20059;-76
2023/09/04 04:45:16;;;;;;;11.68;10.57;;;9.50;99.90;;;;;;6158237;23;20458;-76
2023/09/04 04:47:41;;;;;;;12.10;11.00;;;9.50;99.90;;;;;;6158658;23;20047;-77
2023/09/04 04:50:09;;;;;;;15.02;13.65;;;9.40;99.90;;;;;;6158622;23;20013;-77
2023/09/04 04:52:34;;;;;;;14.45;13.20;;;9.40;99.90;;;;;;6158392;23;20449;-78
2023/09/04 04:55:00;;;;;;;17.33;15.35;;;9.40;99.90;;;;;;6158410;23;20024;-77
2023/09/04 04:57:26;;;;;;;12.65;11.48;;;9.40;99.90;;;;;;6158579;23;20013;-78
2023/09/04 04:59:51;;;;;;;20.50;16.38;;;9.40;99.90;;;;;;6158970;23;20031;-77
2023/09/04 05:02:17;;;;;;;19.45;17.38;;;9.40;99.90;;;;;;6158740;23;20017;-77
2023/09/04 05:04:47;;;;;;;16.50;15.07;;;9.40;99.90;;;;;;6157362;23;20353;-78
2023/09/04 05:07:13;;;;;;;15.23;14.02;;;9.40;99.90;;;;;;6157957;23;20005;-78
2023/09/04 05:09:39;;;;;;;18.30;16.52;;;9.40;99.90;;;;;;6158866;23;20020;-77
2023/09/04 05:12:06;;;;;;;27.17;20.20;;;9.40;99.90;;;;;;6158790;23;20013;-77
2023/09/04 05:14:32;;;;;;;18.63;16.80;;;9.40;99.90;;;;;;6158512;23;20357;-77
2023/09/04 05:16:58;;;;;;;21.10;18.52;;;9.40;99.90;;;;;;6158684;23;20009;-77
2023/09/04 05:19:23;;;;;;;19.85;18.05;;;9.50;99.90;;;;;;6158159;23;20450;-77
2023/09/04 05:21:49;;;;;;;28.35;23.83;;;9.50;99.90;;;;;;6155400;23;20017;-77
2023/09/04 05:24:14;;;;;;;22.58;20.35;;;9.50;99.90;;;;;;6157141;23;20413;-78
2023/09/04 05:26:40;;;;;;;21.92;19.67;;;9.50;99.90;;;;;;6158699;23;20009;-77
2023/09/04 05:29:06;;;;;;;23.90;21.27;;;9.50;99.90;;;;;;6158015;23;20092;-77
2023/09/04 05:31:31;;;;;;;18.13;16.45;;;9.50;99.90;;;;;;6157820;23;20031;-77
2023/09/04 05:33:57;;;;;;;18.25;16.45;;;9.60;99.90;;;;;;6157213;23;20144;-77
2023/09/04 05:36:22;;;;;;;34.47;26.60;;;9.60;99.90;;;;;;6158553;23;20036;-77
2023/09/04 05:38:48;;;;;;;49.50;43.28;;;9.60;99.90;;;;;;6133563;23;20330;-77
2023/09/04 05:41:14;;;;;;;56.72;47.60;;;9.70;99.90;;;;;;6133328;23;20016;-77
2023/09/04 05:43:40;;;;;;;52.85;47.53;;;9.80;99.90;;;;;;6158053;23;20055;-77
2023/09/04 05:46:06;;;;;;;80.70;60.95;;;10.00;99.90;;;;;;6158080;23;20009;-77
2023/09/04 05:48:34;;;;;;;90.03;60.58;;;10.20;99.90;;;;;;6157646;23;20009;-77
2023/09/04 05:51:01;;;;;;;60.25;53.85;;;10.30;99.90;;;;;;6157768;23;20240;-78
2023/09/04 05:53:26;;;;;;;52.72;47.58;;;10.50;99.90;;;;;;6157983;23;20017;-77
2023/09/04 05:56:05;;;;;;;60.58;53.97;;;10.70;99.90;;;;;;6158303;23;20088;-77
2023/09/04 05:58:31;;;;;;;56.20;50.40;;;11.00;99.90;;;;;;6157393;23;20016;-77
2023/09/04 06:00:57;;;;;;;51.78;46.75;;;11.20;99.90;;;;;;6182245;23;20019;-77
2023/09/04 06:03:23;;;;;;;51.53;46.60;;;11.30;99.90;;;;;;6158091;23;20092;-78
2023/09/04 06:05:49;;;;;;;49.00;44.40;;;11.50;99.90;;;;;;6157668;23;20013;-77
2023/09/04 06:08:15;;;;;;;46.28;41.90;;;11.60;99.90;;;;;;6158112;23;20013;-78
2023/09/04 06:10:41;;;;;;;52.17;47.10;;;11.70;99.90;;;;;;6157893;23;20020;-77
2023/09/04 06:13:06;;;;;;;43.25;39.25;;;11.80;99.90;;;;;;6157237;23;20009;-78
2023/09/04 06:15:32;;;;;;;42.63;38.65;;;11.90;99.90;;;;;;6157566;23;20005;-77
2023/09/04 06:17:58;;;;;;;43.03;39.30;;;12.10;99.90;;;;;;6157905;23;20036;-77
2023/09/04 06:20:23;;;;;;;39.88;36.10;;;12.20;99.90;;;;;;6157841;23;20013;-77
2023/09/04 06:22:49;;;;;;;37.10;34.10;;;12.30;99.90;;;;;;6133075;23;20008;-77
2023/09/04 06:25:14;;;;;;;36.85;33.58;;;12.40;99.90;;;;;;6181520;23;20020;-78
2023/09/04 06:27:40;;;;;;;40.80;37.20;;;12.50;99.90;;;;;;6182590;23;20035;-77
2023/09/04 06:30:06;;;;;;;36.53;33.53;;;12.50;99.90;;;;;;6158208;23;20005;-78
2023/09/04 06:32:32;;;;;;;45.00;39.83;;;12.60;99.90;;;;;;6156320;23;20016;-77
2023/09/04 06:34:58;;;;;;;36.38;33.47;;;12.60;99.90;;;;;;6157828;23;20045;-77
2023/09/04 06:37:25;;;;;;;42.25;38.25;;;12.70;99.90;;;;;;6157572;23;20462;-77
2023/09/04 06:39:50;;;;;;;68.45;50.20;;;12.80;99.90;;;;;;6182859;23;20061;-78
2023/09/04 06:42:16;;;;;;;41.75;38.15;;;12.80;99.90;;;;;;6156277;23;20020;-77
2023/09/04 06:44:41;;;;;;;54.17;42.72;;;12.90;99.90;;;;;;6157033;23;20064;-77
2023/09/04 06:47:07;;;;;;;35.55;32.75;;;12.90;99.90;;;;;;6157137;23;20478;-77
2023/09/04 06:49:32;;;;;;;35.03;32.28;;;12.90;99.90;;;;;;6157925;23;20346;-77
2023/09/04 06:51:58;;;;;;;40.10;36.83;;;13.00;99.90;;;;;;6157293;23;20323;-77
2023/09/04 06:54:24;;;;;;;36.00;33.05;;;13.20;99.90;;;;;;6182667;23;20013;-77
2023/09/04 06:56:49;;;;;;;38.72;35.67;;;13.40;99.90;;;;;;6156741;23;20476;-78
2023/09/04 06:59:15;;;;;;;33.40;30.83;;;13.50;99.90;;;;;;6156685;23;20056;-77
2023/09/04 07:01:41;;;;;;;31.17;28.70;;;13.70;99.90;;;;;;6157275;23;20009;-77
2023/09/04 07:04:07;;;;;;;32.78;30.35;;;13.90;99.90;;;;;;6157770;23;20593;-77
2023/09/04 07:06:32;;;;;;;35.33;32.58;;;14.00;99.90;;;;;;6157439;23;20013;-78
2023/09/04 07:08:58;;;;;;;29.05;26.75;;;14.10;99.90;;;;;;6181280;23;20005;-77
2023/09/04 07:11:23;;;;;;;26.05;24.15;;;14.20;99.90;;;;;;6132929;23;20013;-77
2023/09/04 07:13:49;;;;;;;25.92;24.00;;;14.30;99.90;;;;;;6157825;23;20024;-77
2023/09/04 07:16:15;;;;;;;34.83;32.03;;;14.40;99.90;;;;;;6157138;23;20071;-77
2023/09/04 07:18:40;;;;;;;37.88;34.70;;;14.60;99.90;;;;;;6131574;23;20450;-77
2023/09/04 07:21:06;;;;;;;38.60;35.53;;;14.60;99.90;;;;;;6157244;23;20023;-80
2023/09/04 07:23:31;;;;;;;28.05;26.00;;;14.70;99.90;;;;;;6181684;23;20024;-79
2023/09/04 07:25:57;;;;;;;25.33;23.27;;;14.80;99.90;;;;;;6132246;23;20015;-78
2023/09/04 07:28:23;;;;;;;23.70;21.83;;;14.90;99.90;;;;;;6155363;23;20020;-79
2023/09/04 07:30:49;;;;;;;20.70;19.10;;;15.00;99.90;;;;;;6157237;23;20497;-78
2023/09/04 07:33:14;;;;;;;25.80;23.65;;;15.20;99.90;;;;;;6157438;23;20020;-79
2023/09/04 07:35:40;;;;;;;26.98;24.88;;;15.30;99.90;;;;;;6133019;23;20442;-79
2023/09/04 07:38:06;;;;;;;18.27;16.67;;;15.40;99.90;;;;;;6156727;23;20020;-79
2023/09/04 07:40:33;;;;;;;20.63;19.00;;;15.40;99.90;;;;;;6155545;23;20346;-78
2023/09/04 07:42:59;;;;;;;25.58;23.55;;;15.50;99.90;;;;;;6155131;23;20013;-79
2023/09/04 07:45:25;;;;;;;15.65;14.32;;;15.70;99.90;;;;;;6155118;23;20474;-78
2023/09/04 07:47:50;;;;;;;14.55;13.35;;;15.80;99.90;;;;;;6155649;23;20017;-76
2023/09/04 07:50:16;;;;;;;14.40;13.15;;;15.90;99.90;;;;;;6157027;23;20422;-77
2023/09/04 07:52:42;;;;;;;16.77;15.55;;;16.00;99.90;;;;;;6157298;23;20084;-79
2023/09/04 07:55:09;;;;;;;12.65;11.55;;;16.20;99.90;;;;;;6157311;23;20024;-77
2023/09/04 07:57:35;;;;;;;15.77;14.48;;;16.30;99.90;;;;;;6156191;23;20016;-81
2023/09/04 08:00:01;;;;;;;14.05;12.90;;;16.40;99.90;;;;;;6131155;23;20324;-79
2023/09/04 08:02:26;;;;;;;15.43;14.18;;;16.50;99.90;;;;;;6156346;23;20045;-78
2023/09/04 08:04:52;;;;;;;13.20;12.25;;;16.50;99.90;;;;;;6157149;23;20013;-78
2023/09/04 08:07:17;;;;;;;12.10;11.10;;;16.60;99.90;;;;;;6154950;23;20013;-78
2023/09/04 08:09:43;;;;;;;13.10;12.00;;;16.60;99.90;;;;;;6157049;23;20012;-79
2023/09/04 08:12:08;;;;;;;13.30;12.25;;;16.70;99.90;;;;;;6182840;23;20016;-79
2023/09/04 08:14:36;;;;;;;10.68;9.88;;;16.70;99.90;;;;;;6158777;23;20170;-78
2023/09/04 08:17:03;;;;;;;12.00;11.00;;;16.80;99.90;;;;;;6134328;23;20346;-79
2023/09/04 08:19:28;;;;;;;10.30;9.40;;;17.00;99.90;;;;;;6156919;23;20084;-77
2023/09/04 08:21:56;;;;;;;10.95;9.82;;;17.10;99.90;;;;;;6158983;23;20044;-77
2023/09/04 08:24:22;;;;;;;11.23;10.30;;;17.20;99.90;;;;;;6158110;23;20088;-77
2023/09/04 08:26:47;;;;;;;9.68;8.85;;;17.30;99.90;;;;;;6158993;23;20005;-77
2023/09/04 08:29:13;;;;;;;9.85;9.00;;;17.40;99.90;;;;;;6158928;23;20005;-76
2023/09/04 08:31:38;;;;;;;9.57;8.68;;;17.50;99.90;;;;;;6157706;23;20009;-76
2023/09/04 08:34:04;;;;;;;9.45;8.55;;;17.60;99.90;;;;;;6158905;23;20013;-78
2023/09/04 08:36:29;;;;;;;9.90;9.07;;;17.80;99.90;;;;;;6158416;23;20013;-77
2023/09/04 08:38:55;;;;;;;9.05;8.27;;;18.30;99.90;;;;;;6158507;23;20017;-78
2023/09/04 08:41:24;;;;;;;8.05;7.35;;;19.00;99.90;;;;;;6158798;23;20017;-79
2023/09/04 08:43:50;;;;;;;9.50;8.80;;;19.50;99.90;;;;;;6157745;23;20013;-78
2023/09/04 08:46:16;;;;;;;8.57;7.80;;;20.20;99.90;;;;;;6157073;23;20500;-78
2023/09/04 08:48:44;;;;;;;9.00;8.20;;;20.80;99.90;;;;;;6156978;23;20380;-77
2023/09/04 08:51:09;;;;;;;8.75;8.05;;;21.30;99.90;;;;;;6157935;23;20016;-77
2023/09/04 08:53:36;;;;;;;7.10;6.40;;;21.80;99.90;;;;;;6157952;23;20025;-77
2023/09/04 08:56:03;;;;;;;7.22;6.63;;;22.20;99.90;;;;;;6158194;23;20041;-77
2023/09/04 08:58:29;;;;;;;6.63;6.13;;;22.40;99.90;;;;;;6133710;23;20063;-77
2023/09/04 09:00:55;;;;;;;6.60;5.93;;;22.60;99.90;;;;;;6158299;23;20017;-77
2023/09/04 09:03:22;;;;;;;6.22;4.90;;;23.00;99.90;;;;;;6158544;23;20342;-78
2023/09/04 09:05:48;;;;;;;5.20;4.70;;;23.10;99.90;;;;;;6158393;23;20500;-77
2023/09/04 09:08:16;;;;;;;7.32;5.07;;;23.10;99.90;;;;;;6158587;23;20100;-77
2023/09/04 09:10:45;;;;;;;5.60;4.50;;;23.10;99.90;;;;;;6158657;23;20020;-78
2023/09/04 09:13:14;;;;;;;6.35;4.70;;;23.10;99.90;;;;;;6130510;23;20021;-80
2023/09/04 09:15:42;;;;;;;6.72;4.60;;;23.20;99.90;;;;;;6132107;23;20014;-81
2023/09/04 09:18:11;;;;;;;5.40;4.53;;;23.30;99.90;;;;;;6131409;23;20018;-83
2023/09/04 09:20:40;;;;;;;5.00;4.28;;;23.40;99.90;;;;;;6128590;23;20093;-79
2023/09/04 09:23:06;;;;;;;6.05;4.18;;;23.50;99.90;;;;;;6111940;23;20013;-81
2023/09/04 09:25:34;;;;;;;4.68;3.70;;;23.70;99.90;;;;;;6123651;23;20025;-80
2023/09/04 09:28:06;;;;;;;6.25;4.22;;;23.70;99.90;;;;;;6100139;23;20057;-79
2023/09/04 09:30:39;;;;;;;4.78;3.70;;;23.70;99.90;;;;;;6101841;23;20017;-79
2023/09/04 09:33:08;;;;;;;3.92;3.50;;;23.70;99.90;;;;;;6101559;23;20014;-79
2023/09/04 09:35:34;;;;;;;5.25;3.33;;;23.80;99.90;;;;;;6101264;23;20053;-79
2023/09/04 09:38:01;;;;;;;5.40;3.78;;;23.90;99.90;;;;;;6101034;23;20024;-80
2023/09/04 09:40:27;;;;;;;5.78;3.90;;;23.90;99.90;;;;;;6100213;23;20497;-79
2023/09/04 09:42:54;;;;;;;4.50;3.80;;;24.20;99.90;;;;;;6101493;23;20072;-80
2023/09/04 09:45:20;;;;;;;5.95;4.18;;;24.60;99.90;;;;;;6104930;23;20112;-80
2023/09/04 09:47:49;;;;;;;4.85;4.15;;;24.80;99.90;;;;;;6099772;23;20059;-79
2023/09/04 09:50:15;;;;;;;5.72;3.90;;;24.80;99.90;;;;;;6101044;23;20014;-79
2023/09/04 09:52:58;;;;;;;6.32;3.90;;;24.90;99.90;;;;;;6101004;23;20018;-80
2023/09/04 09:55:26;;;;;;;5.18;4.22;;;25.10;99.90;;;;;;6103820;23;20045;-80
2023/09/04 09:57:53;;;;;;;6.95;3.60;;;25.40;94.00;;;;;;6102841;23;20049;-79
2023/09/04 10:00:28;;;;;;;4.47;3.65;;;25.30;91.10;;;;;;6100233;23;20025;-79
2023/09/04 10:02:54;;;;;;;4.32;3.92;;;25.10;99.90;;;;;;6100927;23;20014;-79
2023/09/04 10:05:23;;;;;;;4.05;3.65;;;25.10;99.90;;;;;;6099910;23;20029;-75
2023/09/04 10:07:58;;;;;;;4.10;3.60;;;25.20;99.90;;;;;;6149880;23;20014;-79
2023/09/04 10:10:24;;;;;;;5.05;3.88;;;25.40;99.90;;;;;;6152066;23;20010;-81
2023/09/04 10:13:13;;;;;;;4.55;4.00;;;25.50;99.90;;;;;;6100651;23;20013;-79
2023/09/04 10:15:42;;;;;;;3.88;3.50;;;25.70;99.90;;;;;;6104580;23;20010;-79
2023/09/04 10:18:14;;;;;;;4.13;3.25;;;25.80;92.80;;;;;;6102134;23;20014;-79
2023/09/04 10:20:41;;;;;;;4.18;3.10;;;25.70;99.90;;;;;;6100366;23;20013;-79
2023/09/04 10:23:09;;;;;;;4.15;3.30;;;25.60;99.90;;;;;;6100595;23;20013;-78
2023/09/04 10:25:47;;;;;;;5.05;4.25;;;25.60;99.90;;;;;;6149240;23;20014;-78
2023/09/04 10:28:21;;;;;;;3.45;3.15;;;25.80;99.90;;;;;;6099891;23;20017;-79
2023/09/04 10:30:52;;;;;;;4.68;3.00;;;25.80;99.90;;;;;;6158723;23;20013;-81
2023/09/04 10:33:19;;;;;;;3.70;3.08;;;25.80;99.90;;;;;;6154404;23;20014;-78
2023/09/04 10:35:45;;;;;;;3.70;3.30;;;25.90;99.90;;;;;;6099356;23;20036;-78
2023/09/04 10:38:12;;;;;;;4.65;2.75;;;26.00;99.90;;;;;;6098706;23;20021;-79
2023/09/04 10:40:39;;;;;;;4.35;3.08;;;26.10;99.90;;;;;;6147480;23;20017;-79
2023/09/04 10:43:05;;;;;;;4.40;3.25;;;26.10;99.90;;;;;;6097598;23;20010;-79
2023/09/04 10:45:32;;;;;;;3.60;3.00;;;26.30;99.90;;;;;;6098464;23;20010;-79
2023/09/04 10:48:01;;;;;;;4.13;3.25;;;26.50;99.90;;;;;;6101745;23;20068;-81
2023/09/04 10:50:38;;;;;;;4.40;2.75;;;26.50;99.90;;;;;;6150078;23;20017;-80
2023/09/04 10:53:08;;;;;;;3.35;2.78;;;26.60;99.90;;;;;;6101773;23;20009;-80
2023/09/04 10:55:36;;;;;;;4.07;2.70;;;26.70;99.90;;;;;;6100729;23;20454;-80
2023/09/04 10:58:04;;;;;;;4.60;3.33;;;26.80;99.90;;;;;;6099544;23;20312;-79
2023/09/04 11:00:38;;;;;;;4.25;3.20;;;27.00;99.90;;;;;;6097992;23;20021;-79
2023/09/04 11:03:23;;;;;;;3.75;3.25;;;27.00;99.90;;;;;;6100010;23;20014;-79
2023/09/04 11:06:07;;;;;;;5.75;3.90;;;27.10;99.90;;;;;;6100225;23;20085;-79
2023/09/04 11:08:39;;;;;;;4.38;3.30;;;27.20;86.70;;;;;;6099143;23;20319;-79
2023/09/04 11:11:07;;;;;;;3.40;3.10;;;27.00;79.60;;;;;;6124577;23;20057;-79
2023/09/04 11:13:33;;;;;;;4.47;3.15;;;26.80;80.80;;;;;;6099944;23;20021;-79
2023/09/04 11:16:04;;;;;;;4.03;2.85;;;26.70;74.80;;;;;;6100824;23;20101;-81
2023/09/04 11:18:35;;;;;;;3.90;2.78;;;26.60;72.20;;;;;;6100387;23;20386;-80
2023/09/04 11:21:01;;;;;;;4.53;3.30;;;26.50;70.90;;;;;;6099870;23;20018;-79
2023/09/04 11:23:28;;;;;;;3.47;3.13;;;26.30;82.90;;;;;;6099594;23;20029;-79
2023/09/04 11:25:55;;;;;;;4.30;2.88;;;26.30;94.60;;;;;;6148336;23;20014;-79
2023/09/04 11:28:24;;;;;;;4.10;2.97;;;26.20;96.50;;;;;;6148346;23;20010;-80
2023/09/04 11:30:58;;;;;;;3.30;2.58;;;26.50;71.40;;;;;;6148593;23;20045;-80
2023/09/04 11:33:24;;;;;;;4.20;2.80;;;26.40;72.20;;;;;;6099458;23;20057;-80
2023/09/04 11:36:06;;;;;;;4.88;3.10;;;26.30;70.70;;;;;;6099487;23;20473;-80
2023/09/04 11:38:34;;;;;;;5.40;3.17;;;26.20;75.20;;;;;;6098829;23;20018;-80
2023/09/04 11:41:03;;;;;;;3.88;3.05;;;26.10;77.20;;;;;;6147938;23;20114;-80
2023/09/04 11:43:28;;;;;;;6.05;3.42;;;26.30;91.10;;;;;;6098812;23;20021;-79
2023/09/04 11:45:59;;;;;;;3.60;2.50;;;26.40;97.00;;;;;;6098541;23;20010;-79
2023/09/04 11:48:26;;;;;;;3.58;2.20;;;26.70;99.30;;;;;;6099078;23;20010;-80
2023/09/04 11:50:53;;;;;;;3.22;2.47;;;27.10;73.80;;;;;;6099282;23;20017;-80
2023/09/04 11:53:19;;;;;;;2.60;2.30;;;27.20;79.30;;;;;;6098354;23;20017;-79
2023/09/04 11:55:46;;;;;;;4.03;2.45;;;27.50;92.30;;;;;;6099467;23;20069;-79
2023/09/04 11:58:12;;;;;;;3.60;2.47;;;27.60;94.70;;;;;;6097965;23;20021;-79
2023/09/04 12:00:39;;;;;;;3.90;2.47;;;27.80;91.30;;;;;;6099103;23;20014;-79
2023/09/04 12:03:05;;;;;;;4.63;2.25;;;27.80;91.90;;;;;;6099321;23;20342;-80
2023/09/04 12:05:32;;;;;;;3.88;2.20;;;27.90;69.60;;;;;;6099695;23;20049;-80
2023/09/04 12:07:58;;;;;;;2.70;2.50;;;27.80;67.60;;;;;;6098905;23;20334;-80
2023/09/04 12:10:24;;;;;;;2.47;2.28;;;27.60;72.30;;;;;;6148386;23;20046;-80
2023/09/04 12:12:51;;;;;;;3.17;2.72;;;27.50;73.30;;;;;;6099178;23;20014;-79
2023/09/04 12:15:27;;;;;;;4.20;2.17;;;27.60;73.50;;;;;;6099274;23;20018;-79
2023/09/04 12:17:54;;;;;;;2.70;2.38;;;27.90;75.60;;;;;;6099140;23;20018;-79
2023/09/04 12:20:20;;;;;;;2.22;2.03;;;28.30;74.20;;;;;;6099895;23;20481;-79
2023/09/04 12:22:56;;;;;;;2.20;1.98;;;28.50;63.40;;;;;;6098959;23;20022;-80
2023/09/04 12:25:47;;;;;;;3.85;2.30;;;28.20;66.10;;;;;;6148866;23;20015;-79
2023/09/04 12:28:14;;;;;;;4.10;2.20;;;28.20;65.50;;;;;;6087803;23;20469;-79
2023/09/04 12:30:46;;;;;;;2.67;2.15;;;28.10;67.30;;;;;;6099554;23;20010;-79
2023/09/04 12:33:13;;;;;;;4.18;2.20;;;28.00;68.80;;;;;;6098601;23;20014;-79
2023/09/04 12:35:40;;;;;;;2.95;2.15;;;28.20;73.40;;;;;;6099516;23;20013;-79